OIBL  Bandar Lengeh Airport

Add Bookmark

Bandar Lengeh, Iran

Status IATA
Operational BDH
Latitude Longitude
26° 31' 55" N 54° 49' 29" E
26.532000 54.824799
Local (DST + 5) UTC (GMT + 4)
Aug 22, 2014 04:15 Aug 22, 2014 11:45
Sunrise-Sunset Local UTC
Begin Civil Twilight 06:00 01:30
Sunrise 06:24 01:54
Sunset 07:22 14:52
End Civil Twilight 07:46 15:16

Current Weather

METAR Observed MVFR
OIBL 221100Z 15008KT 5000 HZ SKC 36/28 Q1000 Fri, Aug 22, 2014 @ 11:00 UTC
(45 Minutes ago)
Marginal Visual Flight Rules
Wind Visibility Clouds Conditions
150° at 8 knots (15 kph) 5000 meters
  • Clear skies
  • Haze
Temperatures Readings Precipitation
Current Temp 36°C (97°F)
Dewpoint 28°C (82°F)
Heat Index 50°C (122°F)
Humidity 63%
Altimeter 29.53"Hg
Sea Level Pressure 1000mb
Field Elevation 45.93'
None Recorded

Additional weather within a 92.6km radius of OIBL

Map ICAO Location
OIBS 74.8km S (202°)
OIBA 75.7km S (164°)
OIBK 83.9km W (270°)

24 Hour Weather History

Loading
-

24 Hour Weather Graphs

Loading
-

CheckWX.com is intended as a tool to help pilots better visualize weather data. It is not intended as a substitute for an official weather briefing obtained from a Flight Service Station. CheckWX.com does not meet the FAA requirements for an official pre-flight weather briefing. Therefore, it's important that pilots still call and obtain an official FSS pre-flight weather briefing.